Herzlich willkommen!

Am freundlichen Bodensee-Flugplatz zwischen Schwarzwald, Rhein und Alpen.

Aktuelles

10.11.2022
Winterpause 2022/2023
Vom 17.12.2022 bis einschliesslich 31.01.2023 ist unser Flugplatz per NOTAM von der Betriebspflicht befreit. Vom 22.12.2022 bis 08.01.2023 gastiert wieder der stimmungsvolle Weihnachtszirkus Renz bei uns auf der Wiese. Wir wünschen allen einen guten Flug ins neue Jahr und freuen uns auf ein Wiedersehen in alter Frische im Februar!
— Flugleitung EDTZ

Live am Platz

Die Bilder unserer Webcams werden alle 5 Minuten aktualisiert.

Sonnenaufgang:

06:51 UTC / 07:51 Lokal

Sonnenuntergang:

15:34 UTC / 16:34 Lokal

METAR (03.12.2022 04:20 UTC):

EDNY 030420Z AUTO 05006KT 020V080 9999 // OVC008/// 01/M01 Q1016
IFR

TAF (02.12.2022 23:00 UTC):

TAF EDNY 022300Z 0300/0324 05004KT 9000 FEW025 TEMPO 0300/0310 BKN004 BECMG 0306/0308 03009KT BECMG 0319/0321 03004KT PROB30 TEMPO 0321/0324 4000 BR BKN004

Alle Angaben unverbindlich und ohne Gewähr. Zeiten genähert.

Für den Verkehrslandeplatz Konstanz werden keine offiziellen Wetterinformationen ausgegeben. Daher werden zur Orientierung Daten des nahegelegenen Flughafens Friedrichshafen dargestellt.

Das Landeentgelt kann bei uns auch mit aerops bezahlt werden. Die App für's Handy ist kostenfrei erhältlich.